Time;durP1;ratioP1;P1;durP2;ratioP2;P2;SDS_P1;SDS_P2;PMS_P1;PMS_P2;Temp;Humidity;BMP_temperature;BMP_pressure;BME280_temperature;BME280_humidity;BME280_pressure;Samples;Min_cycle;Max_cycle;Signal;HPM_P1;HPM_P2
2021/06/01 00:01:06;;;;;;;4.30;3.87;;;12.30;99.90;;;;;;5093661;28;20170;-51
2021/06/01 00:03:31;;;;;;;4.60;4.20;;;12.30;99.90;;;;;;5093806;28;20652;-58
2021/06/01 00:05:57;;;;;;;4.20;3.80;;;12.20;99.90;;;;;;5093811;28;20177;-56
2021/06/01 00:08:24;;;;;;;4.90;4.37;;;12.30;99.90;;;;;;5093932;28;20181;-60
2021/06/01 00:10:49;;;;;;;5.90;4.20;;;12.30;99.90;;;;;;5094138;28;20181;-52
2021/06/01 00:13:15;;;;;;;6.83;4.70;;;12.30;99.90;;;;;;5093549;28;20170;-51
2021/06/01 00:15:40;;;;;;;4.43;4.03;;;12.20;99.90;;;;;;5093632;28;20205;-55
2021/06/01 00:18:06;;;;;;;4.73;4.30;;;12.20;99.90;;;;;;5093684;28;20280;-52
2021/06/01 00:20:31;;;;;;;5.13;3.83;;;12.20;99.90;;;;;;5093828;28;20174;-53
2021/06/01 00:22:57;;;;;;;6.10;4.07;;;12.10;99.90;;;;;;5093289;28;20257;-50
2021/06/01 00:25:22;;;;;;;4.30;3.90;;;12.10;99.90;;;;;;5093458;28;20178;-54
2021/06/01 00:27:48;;;;;;;5.77;3.97;;;12.00;99.90;;;;;;5093347;28;20718;-59
2021/06/01 00:30:14;;;;;;;4.50;4.10;;;11.90;99.90;;;;;;5094123;28;20625;-59
2021/06/01 00:32:39;;;;;;;4.20;3.80;;;11.90;99.90;;;;;;5093277;28;20227;-54
2021/06/01 00:35:05;;;;;;;5.77;4.60;;;11.90;99.90;;;;;;5093710;28;20587;-51
2021/06/01 00:37:31;;;;;;;4.33;3.93;;;11.80;99.90;;;;;;5097180;28;20715;-56
2021/06/01 00:39:56;;;;;;;4.43;4.03;;;11.80;99.90;;;;;;5097372;28;20182;-57
2021/06/01 00:42:22;;;;;;;3.90;3.60;;;11.80;99.90;;;;;;5097266;28;20624;-59
2021/06/01 00:44:50;;;;;;;4.87;3.67;;;11.80;99.90;;;;;;5097755;28;20541;-55
2021/06/01 00:47:16;;;;;;;5.00;4.43;;;11.70;99.90;;;;;;5095926;28;20198;-60
2021/06/01 00:49:41;;;;;;;5.77;3.80;;;11.70;99.90;;;;;;5097199;28;20200;-58
2021/06/01 00:52:07;;;;;;;5.33;4.37;;;11.70;99.90;;;;;;5095648;28;20228;-59
2021/06/01 00:54:33;;;;;;;4.40;3.83;;;11.60;99.90;;;;;;5097073;28;20571;-60
2021/06/01 00:56:59;;;;;;;4.60;3.87;;;11.60;99.90;;;;;;5096505;28;20205;-60
2021/06/01 00:59:25;;;;;;;5.07;4.57;;;11.60;99.90;;;;;;5097019;28;20176;-59
2021/06/01 01:01:50;;;;;;;4.77;4.37;;;11.60;99.90;;;;;;5096877;28;20187;-52
2021/06/01 01:04:16;;;;;;;5.40;4.13;;;11.50;99.90;;;;;;5096792;28;20670;-53
2021/06/01 01:07:22;;;;;;;4.80;4.30;;;11.50;99.90;;;;;;5096978;28;20201;-59
2021/06/01 01:09:49;;;;;;;4.70;4.30;;;11.50;99.90;;;;;;5097433;28;20610;-53
2021/06/01 01:12:23;;;;;;;4.77;4.33;;;11.40;99.90;;;;;;5096961;28;20227;-57
2021/06/01 01:14:54;;;;;;;5.37;4.40;;;11.40;99.90;;;;;;5096671;28;20193;-52
2021/06/01 01:17:44;;;;;;;6.57;4.50;;;11.40;99.90;;;;;;5096171;28;20651;-58
2021/06/01 01:20:30;;;;;;;4.70;4.30;;;11.30;99.90;;;;;;5097244;28;20162;-51
2021/06/01 01:22:58;;;;;;;4.87;4.40;;;11.30;99.90;;;;;;5096380;28;20215;-59
2021/06/01 01:25:41;;;;;;;5.10;4.53;;;11.30;99.90;;;;;;5096368;28;20295;-50
2021/06/01 01:28:31;;;;;;;6.60;4.77;;;11.20;99.90;;;;;;5094404;28;20216;-59
2021/06/01 01:31:02;;;;;;;4.67;4.27;;;11.20;99.90;;;;;;5093853;28;20630;-53
2021/06/01 01:33:34;;;;;;;7.40;4.60;;;11.20;99.90;;;;;;5093051;28;20273;-59
2021/06/01 01:36:03;;;;;;;4.80;4.37;;;11.10;99.90;;;;;;5094039;28;20630;-57
2021/06/01 01:38:29;;;;;;;4.47;4.07;;;11.00;99.90;;;;;;5093690;28;20197;-59
2021/06/01 01:41:00;;;;;;;6.10;4.40;;;11.00;99.90;;;;;;5094038;28;20170;-59
2021/06/01 01:43:30;;;;;;;5.07;4.40;;;11.00;99.90;;;;;;5094126;28;20162;-56
2021/06/01 01:46:14;;;;;;;5.00;4.50;;;11.00;99.90;;;;;;5095412;28;20207;-55
2021/06/01 01:49:01;;;;;;;4.90;4.40;;;10.90;99.90;;;;;;5096162;28;20602;-57
2021/06/01 01:51:31;;;;;;;5.93;4.57;;;10.90;99.90;;;;;;5095776;28;20182;-57
2021/06/01 01:53:59;;;;;;;5.80;4.60;;;10.90;99.90;;;;;;5094462;28;20213;-57
2021/06/01 01:56:34;;;;;;;4.83;4.40;;;10.80;99.90;;;;;;5095881;28;20198;-60
2021/06/01 01:59:00;;;;;;;5.63;4.97;;;10.80;99.90;;;;;;5096034;28;20270;-57
2021/06/01 02:01:32;;;;;;;5.50;4.47;;;10.80;99.90;;;;;;5095692;28;20178;-58
2021/06/01 02:03:59;;;;;;;5.37;4.37;;;10.80;99.90;;;;;;5095510;28;20165;-51
2021/06/01 02:06:25;;;;;;;5.27;4.50;;;10.80;99.90;;;;;;5095450;28;20198;-50
2021/06/01 02:08:51;;;;;;;4.40;4.07;;;10.70;99.90;;;;;;5095665;28;20188;-51
2021/06/01 02:11:16;;;;;;;5.10;4.60;;;10.70;99.90;;;;;;5095279;28;20185;-53
2021/06/01 02:13:45;;;;;;;4.63;4.13;;;10.70;99.90;;;;;;5095315;28;20180;-56
2021/06/01 02:16:10;;;;;;;6.17;4.80;;;10.60;99.90;;;;;;5094183;28;20178;-53
2021/06/01 02:18:36;;;;;;;4.70;4.20;;;10.60;99.90;;;;;;5095283;28;20526;-52
2021/06/01 02:21:08;;;;;;;7.37;5.33;;;10.60;99.90;;;;;;5095988;28;20178;-51
2021/06/01 02:23:47;;;;;;;5.37;4.87;;;10.50;99.90;;;;;;5095384;28;20315;-52
2021/06/01 02:26:22;;;;;;;5.10;4.40;;;10.50;99.90;;;;;;5095601;28;20173;-60
2021/06/01 02:28:53;;;;;;;4.90;4.33;;;10.40;99.90;;;;;;5095165;28;20621;-59
2021/06/01 02:31:26;;;;;;;4.83;4.43;;;10.40;99.90;;;;;;5094955;28;20186;-55
2021/06/01 02:33:55;;;;;;;6.53;4.63;;;10.40;99.90;;;;;;5095042;28;20197;-58
2021/06/01 02:36:20;;;;;;;5.80;4.77;;;10.40;99.90;;;;;;5094835;28;20194;-59
2021/06/01 02:38:46;;;;;;;5.37;4.77;;;10.40;99.90;;;;;;5094803;28;20208;-55
2021/06/01 02:41:14;;;;;;;6.23;5.00;;;10.40;99.90;;;;;;5094789;28;20681;-50
2021/06/01 02:43:40;;;;;;;5.53;4.90;;;10.30;99.90;;;;;;5095103;28;20253;-59
2021/06/01 02:46:06;;;;;;;6.20;4.83;;;10.30;99.90;;;;;;5094914;28;20201;-60
2021/06/01 02:48:32;;;;;;;5.40;4.50;;;10.30;99.90;;;;;;5094833;28;20174;-51
2021/06/01 02:51:13;;;;;;;6.63;4.90;;;10.30;99.90;;;;;;5094467;28;20633;-56
2021/06/01 02:53:40;;;;;;;6.70;5.40;;;10.30;99.90;;;;;;5095402;28;20211;-55
2021/06/01 02:56:06;;;;;;;5.93;4.87;;;10.20;99.90;;;;;;5094656;28;20170;-50
2021/06/01 02:58:32;;;;;;;6.70;5.30;;;10.30;99.90;;;;;;5094546;28;20584;-56
2021/06/01 03:01:01;;;;;;;6.57;5.30;;;10.20;99.90;;;;;;5094343;28;20172;-59
2021/06/01 03:03:26;;;;;;;6.17;5.57;;;10.20;99.90;;;;;;5094426;28;20174;-55
2021/06/01 03:05:52;;;;;;;5.77;5.27;;;10.10;99.90;;;;;;5094339;28;20178;-53
2021/06/01 03:08:29;;;;;;;6.53;5.03;;;10.20;99.90;;;;;;5094900;28;20235;-58
2021/06/01 03:10:56;;;;;;;5.77;5.10;;;10.10;99.90;;;;;;5094675;28;20252;-50
2021/06/01 03:13:23;;;;;;;6.40;5.03;;;10.10;99.90;;;;;;5094310;28;20231;-51
2021/06/01 03:15:48;;;;;;;6.40;5.27;;;10.10;99.90;;;;;;5094360;28;20197;-52
2021/06/01 03:18:14;;;;;;;5.73;5.13;;;10.10;99.90;;;;;;5094071;28;20189;-58
2021/06/01 03:20:40;;;;;;;7.47;5.13;;;10.10;99.90;;;;;;5094529;28;20231;-59
2021/06/01 03:23:05;;;;;;;6.03;5.00;;;10.10;99.90;;;;;;5092829;28;20189;-56
2021/06/01 03:25:31;;;;;;;6.23;5.13;;;10.20;99.90;;;;;;5094450;28;20185;-55
2021/06/01 03:27:57;;;;;;;6.00;5.37;;;10.10;99.90;;;;;;5094150;28;20276;-52
2021/06/01 03:30:22;;;;;;;6.40;5.13;;;10.20;99.90;;;;;;5094318;28;20196;-55
2021/06/01 03:32:48;;;;;;;5.70;5.20;;;10.20;99.90;;;;;;5093739;28;20188;-57
2021/06/01 03:35:13;;;;;;;7.33;5.37;;;10.10;99.90;;;;;;5094009;28;20213;-58
2021/06/01 03:37:39;;;;;;;6.00;5.03;;;10.10;99.90;;;;;;5094290;28;20215;-59
2021/06/01 03:40:05;;;;;;;6.13;5.27;;;10.10;99.90;;;;;;5094595;28;20176;-55
2021/06/01 03:42:31;;;;;;;5.67;4.97;;;10.10;99.90;;;;;;5093870;28;20170;-50
2021/06/01 03:44:57;;;;;;;5.97;5.17;;;10.10;99.90;;;;;;5094228;28;20495;-52
2021/06/01 03:47:22;;;;;;;6.43;5.17;;;10.00;99.90;;;;;;5094033;28;20194;-50
2021/06/01 03:49:48;;;;;;;5.17;4.67;;;10.00;99.90;;;;;;5094022;28;20170;-55
2021/06/01 03:52:13;;;;;;;5.73;5.10;;;10.00;99.90;;;;;;5093793;28;20181;-60
2021/06/01 03:54:39;;;;;;;8.00;5.27;;;10.10;99.90;;;;;;5093735;28;20236;-59
2021/06/01 03:57:09;;;;;;;5.40;4.90;;;10.10;99.90;;;;;;5094134;28;20205;-55
2021/06/01 03:59:34;;;;;;;6.83;4.83;;;10.10;99.90;;;;;;5094078;28;20178;-58
2021/06/01 04:02:00;;;;;;;5.73;5.07;;;10.10;99.90;;;;;;5093654;28;20215;-53
2021/06/01 04:04:25;;;;;;;6.13;5.00;;;10.10;99.90;;;;;;5094107;28;20182;-50
2021/06/01 04:06:51;;;;;;;5.60;5.00;;;10.10;99.90;;;;;;5093645;28;20258;-59
2021/06/01 04:09:16;;;;;;;5.27;4.77;;;10.10;99.90;;;;;;5094657;28;20227;-52
2021/06/01 04:11:43;;;;;;;6.27;4.80;;;10.10;99.90;;;;;;5098010;28;20181;-57
2021/06/01 04:14:08;;;;;;;5.80;4.80;;;10.10;99.90;;;;;;5097762;28;20201;-56
2021/06/01 04:16:34;;;;;;;5.47;4.90;;;10.10;99.90;;;;;;5097956;28;20225;-50
2021/06/01 04:18:59;;;;;;;6.03;4.80;;;10.10;99.90;;;;;;5097757;28;20212;-59
2021/06/01 04:21:25;;;;;;;5.20;4.13;;;10.20;99.90;;;;;;5097754;28;20626;-50
2021/06/01 04:23:50;;;;;;;5.57;4.50;;;10.20;99.90;;;;;;5097762;28;20685;-60
2021/06/01 04:26:16;;;;;;;5.30;4.80;;;10.30;99.90;;;;;;5097534;28;20198;-56
2021/06/01 04:28:41;;;;;;;5.80;4.73;;;10.30;99.90;;;;;;5097861;28;20503;-58
2021/06/01 04:31:08;;;;;;;6.40;4.50;;;10.30;99.90;;;;;;5097532;28;20213;-60
2021/06/01 04:33:33;;;;;;;4.73;4.30;;;10.30;99.90;;;;;;5097251;28;20177;-50
2021/06/01 04:35:59;;;;;;;6.17;4.93;;;10.40;99.90;;;;;;5097950;28;20181;-52
2021/06/01 04:38:25;;;;;;;8.27;4.90;;;10.50;99.90;;;;;;5097574;28;20238;-56
2021/06/01 04:40:51;;;;;;;12.43;5.10;;;10.50;99.90;;;;;;5097297;28;20226;-51
2021/06/01 04:43:17;;;;;;;5.03;4.53;;;10.60;99.90;;;;;;5097324;28;20257;-57
2021/06/01 04:45:42;;;;;;;4.77;4.30;;;10.70;99.90;;;;;;5097127;28;20181;-58
2021/06/01 04:48:09;;;;;;;5.30;4.40;;;10.70;99.90;;;;;;5097258;28;20225;-55
2021/06/01 04:50:35;;;;;;;5.83;4.80;;;10.90;99.90;;;;;;5097013;28;20278;-60
2021/06/01 04:53:00;;;;;;;5.37;4.87;;;11.00;99.90;;;;;;5096808;28;20185;-56
2021/06/01 04:55:26;;;;;;;4.27;3.87;;;11.10;99.90;;;;;;5096957;28;20209;-52
2021/06/01 04:57:52;;;;;;;5.70;4.03;;;11.20;99.90;;;;;;5077820;28;20209;-56
2021/06/01 05:00:18;;;;;;;5.43;4.23;;;11.30;99.90;;;;;;5076943;28;20174;-50
2021/06/01 05:02:43;;;;;;;4.87;4.10;;;11.40;99.90;;;;;;5076467;28;20174;-56
2021/06/01 05:05:09;;;;;;;4.37;3.97;;;11.50;99.90;;;;;;5077076;28;20182;-56
2021/06/01 05:07:35;;;;;;;4.23;3.83;;;11.70;99.90;;;;;;5076422;28;20201;-50
2021/06/01 05:10:01;;;;;;;4.50;4.10;;;11.70;99.90;;;;;;5076477;28;20175;-57
2021/06/01 05:12:28;;;;;;;5.77;4.03;;;11.80;99.90;;;;;;5076781;28;20195;-50
2021/06/01 05:14:54;;;;;;;5.27;3.87;;;11.90;99.90;;;;;;5076065;28;20748;-50
2021/06/01 05:17:20;;;;;;;4.80;4.30;;;12.00;99.90;;;;;;5076288;28;20198;-59
2021/06/01 05:19:45;;;;;;;4.47;4.00;;;12.10;99.90;;;;;;5076136;28;20257;-59
2021/06/01 05:22:12;;;;;;;4.30;3.90;;;12.20;99.90;;;;;;5075167;28;20174;-56
2021/06/01 05:24:38;;;;;;;4.53;4.07;;;12.20;99.90;;;;;;5076474;28;20206;-56
2021/06/01 05:27:04;;;;;;;4.33;3.93;;;12.40;99.90;;;;;;5076308;28;20229;-53
2021/06/01 05:29:30;;;;;;;5.50;4.30;;;12.40;99.90;;;;;;5075910;28;20682;-54
2021/06/01 05:32:01;;;;;;;6.30;4.53;;;12.50;99.90;;;;;;5076271;28;20213;-56
2021/06/01 05:34:29;;;;;;;5.00;4.50;;;12.60;99.90;;;;;;5094375;28;20263;-59
2021/06/01 05:36:55;;;;;;;5.17;4.67;;;12.70;99.90;;;;;;5095864;28;20197;-59
2021/06/01 05:39:21;;;;;;;6.13;4.80;;;12.80;99.90;;;;;;5095021;28;20198;-59
2021/06/01 05:41:47;;;;;;;7.10;6.17;;;12.80;99.90;;;;;;5095993;28;20227;-57
2021/06/01 05:44:13;;;;;;;7.10;6.03;;;12.80;99.90;;;;;;5096520;28;20178;-53
2021/06/01 05:46:41;;;;;;;7.17;6.40;;;12.80;99.90;;;;;;5096089;28;20198;-55
2021/06/01 05:49:07;;;;;;;7.40;6.07;;;12.80;99.90;;;;;;5093234;28;20252;-50
2021/06/01 05:51:35;;;;;;;6.40;5.70;;;12.80;99.90;;;;;;5095848;28;20170;-52
2021/06/01 05:54:06;;;;;;;6.30;5.70;;;12.90;99.90;;;;;;5094959;28;20225;-53
2021/06/01 05:56:32;;;;;;;5.90;5.30;;;13.00;99.90;;;;;;5095687;28;20238;-52
2021/06/01 05:58:58;;;;;;;7.57;4.80;;;13.10;99.90;;;;;;5096097;28;20169;-55
2021/06/01 06:01:24;;;;;;;5.23;4.73;;;13.30;99.90;;;;;;5093498;28;20527;-51
2021/06/01 06:03:49;;;;;;;5.83;4.80;;;13.40;99.90;;;;;;5094662;28;20177;-51
2021/06/01 06:06:15;;;;;;;6.67;4.60;;;13.50;99.90;;;;;;5094932;28;20177;-55
2021/06/01 06:08:42;;;;;;;5.70;4.90;;;13.60;99.90;;;;;;5096001;28;20619;-59
2021/06/01 06:11:08;;;;;;;5.90;5.30;;;13.60;99.90;;;;;;5094549;28;20871;-58
2021/06/01 06:13:34;;;;;;;5.50;4.93;;;13.70;99.90;;;;;;5093668;28;20615;-57
2021/06/01 06:15:59;;;;;;;4.83;4.30;;;13.80;99.90;;;;;;5094965;28;20197;-51
2021/06/01 06:18:33;;;;;;;6.27;5.17;;;13.60;99.90;;;;;;5093651;28;20204;-57
2021/06/01 06:21:04;;;;;;;5.23;4.20;;;13.70;99.90;;;;;;5095508;28;20199;-50
2021/06/01 06:23:33;;;;;;;4.60;4.20;;;13.90;99.90;;;;;;5095580;28;20627;-57
2021/06/01 06:25:59;;;;;;;6.53;4.40;;;13.90;99.90;;;;;;5094195;28;20568;-56
2021/06/01 06:28:25;;;;;;;5.47;4.40;;;14.00;99.90;;;;;;5095698;28;20507;-54
2021/06/01 06:30:51;;;;;;;5.23;4.07;;;14.10;99.90;;;;;;5095157;28;20638;-57
2021/06/01 06:33:16;;;;;;;5.00;3.90;;;14.20;99.90;;;;;;5093989;28;20180;-55
2021/06/01 06:35:42;;;;;;;4.13;3.70;;;14.30;99.90;;;;;;5095236;28;20670;-56
2021/06/01 06:38:07;;;;;;;6.07;4.00;;;14.40;99.90;;;;;;5094859;28;20213;-53
2021/06/01 06:40:33;;;;;;;4.30;3.90;;;14.40;99.90;;;;;;5095123;28;20180;-51
2021/06/01 06:42:59;;;;;;;4.00;3.60;;;14.40;99.90;;;;;;5095155;28;20177;-52
2021/06/01 06:45:25;;;;;;;5.70;3.83;;;14.50;99.90;;;;;;5095001;28;20180;-59
2021/06/01 06:48:08;;;;;;;4.43;4.03;;;14.70;99.90;;;;;;5094792;28;20228;-56
2021/06/01 06:50:34;;;;;;;4.90;3.87;;;14.90;99.90;;;;;;5095672;28;20179;-54
2021/06/01 06:53:01;;;;;;;6.20;3.90;;;15.00;99.90;;;;;;5094691;28;20261;-58
2021/06/01 06:55:27;;;;;;;6.10;3.63;;;15.10;99.90;;;;;;5095189;28;20267;-50
2021/06/01 06:57:53;;;;;;;5.03;3.97;;;16.20;99.90;;;;;;5094479;28;20276;-51
2021/06/01 07:00:20;;;;;;;3.83;3.53;;;15.40;99.90;;;;;;5094927;28;20231;-55
2021/06/01 07:02:46;;;;;;;3.97;3.60;;;15.50;99.90;;;;;;5094248;28;20652;-57
2021/06/01 07:05:16;;;;;;;4.93;4.07;;;15.30;99.90;;;;;;5094498;28;20252;-50
2021/06/01 07:07:41;;;;;;;4.10;3.70;;;15.20;99.90;;;;;;5094585;28;20197;-56
2021/06/01 07:10:11;;;;;;;4.57;3.80;;;15.30;99.90;;;;;;5095020;28;20518;-52
2021/06/01 07:12:40;;;;;;;4.10;3.43;;;15.40;99.90;;;;;;5094531;28;20661;-50
2021/06/01 07:15:34;;;;;;;4.27;3.50;;;15.50;99.90;;;;;;5094604;28;20212;-52
2021/06/01 07:18:00;;;;;;;3.40;3.10;;;15.60;99.90;;;;;;5094870;28;20229;-60
2021/06/01 07:20:31;;;;;;;3.60;3.30;;;15.70;99.90;;;;;;5095098;28;20534;-59
2021/06/01 07:22:57;;;;;;;4.20;3.80;;;15.80;99.90;;;;;;5093856;28;20218;-57
2021/06/01 07:25:23;;;;;;;4.60;3.60;;;15.90;99.90;;;;;;5094333;28;20182;-51
2021/06/01 07:27:49;;;;;;;4.53;3.40;;;16.00;99.90;;;;;;5093844;28;20347;-52
2021/06/01 07:30:15;;;;;;;5.60;3.50;;;15.90;99.90;;;;;;5094442;28;20170;-50
2021/06/01 07:32:40;;;;;;;3.63;3.33;;;15.90;99.90;;;;;;5093799;28;20650;-56
2021/06/01 07:35:06;;;;;;;3.63;3.33;;;15.90;99.90;;;;;;5093810;28;20208;-57
2021/06/01 07:37:32;;;;;;;5.17;3.00;;;16.10;99.90;;;;;;5093643;28;20209;-56
2021/06/01 07:39:57;;;;;;;4.27;3.30;;;16.40;99.90;;;;;;5094093;28;20180;-56
2021/06/01 07:42:23;;;;;;;4.10;3.23;;;16.50;99.90;;;;;;5093818;28;20495;-55
2021/06/01 07:44:49;;;;;;;3.17;2.90;;;16.60;99.90;;;;;;5093547;28;20637;-52
2021/06/01 07:47:14;;;;;;;3.10;2.80;;;16.70;99.90;;;;;;5094006;28;20653;-53
2021/06/01 07:49:40;;;;;;;4.37;2.83;;;16.90;99.90;;;;;;5094300;28;20201;-57
2021/06/01 07:52:05;;;;;;;4.83;3.90;;;17.10;99.90;;;;;;5092627;28;20185;-54
2021/06/01 07:54:32;;;;;;;4.37;3.57;;;17.20;99.90;;;;;;5094129;28;20209;-57
2021/06/01 07:56:58;;;;;;;4.40;4.00;;;17.00;99.90;;;;;;5094099;28;20272;-52
2021/06/01 07:59:24;;;;;;;5.23;3.57;;;16.90;99.90;;;;;;5093165;28;20178;-55
2021/06/01 08:01:49;;;;;;;6.67;4.00;;;16.80;99.90;;;;;;5093687;28;20215;-58
2021/06/01 08:04:15;;;;;;;4.73;3.70;;;17.50;99.90;;;;;;5093822;28;20218;-51
2021/06/01 08:06:41;;;;;;;3.90;3.50;;;16.60;99.90;;;;;;5094586;28;20216;-52
2021/06/01 08:09:07;;;;;;;4.00;3.70;;;16.70;99.90;;;;;;5094042;28;20684;-57
2021/06/01 08:11:34;;;;;;;4.57;3.97;;;16.90;99.90;;;;;;5093130;28;20300;-60
2021/06/01 08:14:00;;;;;;;4.20;3.40;;;16.90;99.90;;;;;;5093698;28;22120;-50
2021/06/01 08:16:26;;;;;;;5.03;3.47;;;16.90;99.90;;;;;;5093658;28;20288;-50
2021/06/01 08:19:08;;;;;;;4.47;3.60;;;17.20;99.90;;;;;;5093283;28;20179;-59
2021/06/01 08:24:18;;;;;;;4.10;3.00;;;17.40;99.90;;;;;;5093951;28;20262;-51
2021/06/01 08:26:44;;;;;;;4.33;3.00;;;17.20;99.90;;;;;;5093712;28;20217;-56
2021/06/01 08:29:13;;;;;;;2.83;2.60;;;17.20;99.90;;;;;;5094399;28;20311;-58
2021/06/01 08:31:39;;;;;;;3.53;2.70;;;17.30;99.90;;;;;;5092534;28;20640;-52
2021/06/01 08:34:05;;;;;;;6.70;2.70;;;17.60;99.90;;;;;;5094847;28;20207;-52
2021/06/01 08:36:31;;;;;;;4.07;2.80;;;17.70;98.60;;;;;;5093364;28;20287;-50
2021/06/01 08:38:57;;;;;;;3.00;2.70;;;17.80;98.60;;;;;;5093284;28;20221;-56
2021/06/01 08:41:22;;;;;;;2.93;2.67;;;18.00;97.10;;;;;;5093139;28;20509;-54
2021/06/01 08:43:50;;;;;;;2.90;2.60;;;18.20;97.60;;;;;;5093964;28;20174;-51
2021/06/01 08:46:16;;;;;;;2.83;2.50;;;18.50;98.60;;;;;;5077637;28;20240;-56
2021/06/01 08:48:44;;;;;;;2.60;2.37;;;18.60;95.80;;;;;;5094742;28;20166;-54
2021/06/01 08:51:10;;;;;;;3.03;2.53;;;18.80;98.30;;;;;;5094420;28;20503;-55
2021/06/01 08:53:36;;;;;;;3.43;2.40;;;18.90;98.10;;;;;;5082747;28;20185;-54
2021/06/01 08:56:03;;;;;;;2.93;2.60;;;19.10;96.60;;;;;;5092295;28;20202;-58
2021/06/01 08:58:29;;;;;;;2.87;2.30;;;19.00;95.10;;;;;;5062223;28;20704;-56
2021/06/01 09:00:55;;;;;;;2.63;2.40;;;19.00;94.60;;;;;;5092449;28;20167;-55
2021/06/01 09:03:26;;;;;;;2.73;2.50;;;19.00;94.10;;;;;;5084045;28;20206;-59
2021/06/01 09:06:08;;;;;;;3.40;2.80;;;19.00;94.70;;;;;;5094291;28;20253;-54
2021/06/01 09:22:05;;;;;;;2.23;2.03;;;19.40;96.20;;;;;;5093103;28;20181;-52
2021/06/01 09:24:31;;;;;;;2.70;2.50;;;19.70;94.60;;;;;;5084078;28;20206;-52
2021/06/01 09:29:29;;;;;;;3.07;2.67;;;20.00;94.60;;;;;;5077167;28;20196;-53
2021/06/01 09:32:12;;;;;;;2.97;2.40;;;20.20;92.90;;;;;;5089620;28;20189;-54
2021/06/01 09:34:47;;;;;;;3.30;2.57;;;20.10;92.50;;;;;;5079591;28;20198;-57
2021/06/01 09:37:14;;;;;;;2.53;2.33;;;20.10;92.00;;;;;;5091767;28;20201;-50
2021/06/01 09:39:40;;;;;;;3.17;2.80;;;20.10;92.60;;;;;;5082227;28;20179;-54
2021/06/01 09:42:27;;;;;;;4.90;2.60;;;20.30;92.70;;;;;;5092330;28;20182;-54
2021/06/01 09:45:23;;;;;;;2.87;2.47;;;20.40;91.50;;;;;;5089755;28;20534;-58
2021/06/01 09:47:52;;;;;;;2.80;2.43;;;20.40;92.00;;;;;;5072813;28;20222;-56
2021/06/01 09:52:55;;;;;;;3.83;2.17;;;20.50;90.00;;;;;;5072796;28;20193;-56
2021/06/01 09:55:55;;;;;;;3.63;2.30;;;20.60;91.30;;;;;;5073241;28;20650;-54
2021/06/01 09:58:24;;;;;;;2.40;2.20;;;20.80;91.80;;;;;;5070827;28;20274;-57
2021/06/01 10:00:50;;;;;;;2.55;2.35;;;21.00;90.10;;;;;;5073201;28;20185;-57
2021/06/01 10:03:18;;;;;;;4.13;2.30;;;21.00;87.50;;;;;;5072778;28;20187;-53
2021/06/01 10:05:45;;;;;;;2.83;2.50;;;21.20;90.00;;;;;;5072428;28;20192;-61
2021/06/01 10:08:10;;;;;;;2.40;2.20;;;21.10;90.50;;;;;;5069828;28;20215;-59
2021/06/01 10:10:36;;;;;;;2.30;2.10;;;21.30;92.80;;;;;;5071674;28;20538;-61
2021/06/01 10:13:05;;;;;;;3.13;2.40;;;21.70;93.00;;;;;;5072690;28;20238;-58
2021/06/01 10:15:32;;;;;;;2.90;2.70;;;21.70;90.40;;;;;;5071996;28;20566;-58
2021/06/01 10:17:58;;;;;;;2.65;2.45;;;21.60;90.90;;;;;;5073072;28;20215;-57
2021/06/01 10:20:26;;;;;;;3.42;2.72;;;21.50;90.70;;;;;;5072922;28;20180;-54
2021/06/01 10:22:53;;;;;;;2.88;2.58;;;21.30;92.80;;;;;;5073034;28;20162;-54
2021/06/01 10:25:19;;;;;;;4.63;2.70;;;21.20;91.60;;;;;;5095114;28;20519;-55
2021/06/01 10:27:46;;;;;;;2.83;2.50;;;21.20;90.40;;;;;;5095595;28;20199;-57
2021/06/01 10:30:13;;;;;;;2.60;2.40;;;21.10;90.10;;;;;;5095188;28;20177;-57
2021/06/01 10:32:42;;;;;;;2.70;2.50;;;21.10;90.90;;;;;;5094970;28;20522;-54
2021/06/01 10:35:13;;;;;;;3.20;2.28;;;21.00;93.60;;;;;;5095354;28;20305;-54
2021/06/01 10:49:25;;;;;;;4.07;2.80;;;22.00;91.00;;;;;;5075174;28;20678;-60
2021/06/01 10:52:02;;;;;;;2.00;1.90;;;22.30;90.60;;;;;;5074171;28;20181;-54
2021/06/01 10:54:47;;;;;;;3.80;2.70;;;22.50;91.10;;;;;;5074649;28;20295;-55
2021/06/01 10:57:19;;;;;;;3.30;2.80;;;22.50;87.90;;;;;;5074967;28;20206;-58
2021/06/01 10:59:49;;;;;;;2.70;2.50;;;22.30;86.00;;;;;;5075304;28;20217;-59
2021/06/01 11:02:16;;;;;;;3.47;2.70;;;22.20;88.00;;;;;;5074098;28;20661;-53
2021/06/01 11:05:02;;;;;;;2.40;2.20;;;22.30;88.50;;;;;;5074239;28;20170;-57
2021/06/01 11:07:40;;;;;;;2.55;2.10;;;22.30;90.30;;;;;;5074530;28;20209;-57
2021/06/01 11:10:06;;;;;;;3.75;2.60;;;22.20;91.30;;;;;;5074880;28;20181;-57
2021/06/01 11:12:39;;;;;;;3.00;2.80;;;22.30;90.80;;;;;;5074398;28;20175;-54
2021/06/01 11:15:28;;;;;;;2.80;2.42;;;22.30;90.40;;;;;;5074354;28;20199;-54
2021/06/01 11:18:11;;;;;;;2.83;2.63;;;22.50;92.10;;;;;;5074542;28;20709;-53
2021/06/01 11:20:41;;;;;;;3.42;2.55;;;22.70;91.20;;;;;;5073523;28;20249;-56
2021/06/01 11:23:18;;;;;;;4.55;2.80;;;22.90;92.10;;;;;;5074131;28;20178;-52
2021/06/01 11:33:53;;;;;;;4.13;2.53;;;22.60;86.90;;;;;;5073891;28;20561;-56
2021/06/01 11:36:20;;;;;;;4.38;2.65;;;22.50;85.00;;;;;;5074048;28;20666;-51
2021/06/01 11:42:47;;;;;;;4.80;2.42;;;22.30;83.40;;;;;;5073882;28;20216;-59
2021/06/01 11:44:17;;;;;;;2.80;2.35;;;22.20;84.10;;;;;;5073711;28;20236;-57
2021/06/01 11:46:55;;;;;;;2.40;2.20;;;22.20;85.80;;;;;;5072848;28;20223;-53
2021/06/01 11:52:05;;;;;;;5.97;2.60;;;22.40;85.00;;;;;;5073675;28;20531;-61
2021/06/01 11:54:32;;;;;;;2.58;2.35;;;22.20;83.30;;;;;;5073939;28;20194;-54
2021/06/01 12:11:15;;;;;;;2.30;2.20;;;22.40;80.30;;;;;;5073944;28;20174;-53
2021/06/01 12:18:54;;;;;;;4.65;2.50;;;22.40;82.50;;;;;;5073519;28;20201;-57
2021/06/01 12:21:27;;;;;;;2.50;2.30;;;22.50;84.20;;;;;;5073104;28;20170;-61
2021/06/01 12:24:15;;;;;;;2.10;1.90;;;22.60;84.00;;;;;;5073372;28;20637;-60
2021/06/01 12:32:17;;;;;;;3.58;2.15;;;22.90;82.80;;;;;;5076818;28;20224;-59
2021/06/01 12:46:13;;;;;;;2.78;2.10;;;23.30;82.30;;;;;;5077252;28;20261;-59
2021/06/01 13:20:06;;;;;;;3.90;2.30;;;22.40;77.80;;;;;;5054626;28;20630;-60
2021/06/01 13:36:34;;;;;;;2.10;1.90;;;23.10;77.60;;;;;;5053916;28;20237;-57
2021/06/01 13:39:16;;;;;;;2.15;1.80;;;23.40;78.10;;;;;;5054125;28;20195;-56
2021/06/01 13:47:13;;;;;;;3.13;2.33;;;24.80;81.50;;;;;;5060962;28;20266;-61
2021/06/01 14:15:13;;;;;;;2.10;1.90;;;23.80;86.70;;;;;;5076337;28;20205;-55
2021/06/01 14:27:59;;;;;;;3.35;1.88;;;23.70;75.40;;;;;;5075184;28;20193;-52
2021/06/01 15:22:34;;;;;;;2.97;1.95;;;22.70;80.70;;;;;;5012601;28;20251;-59
2021/06/01 15:50:04;;;;;;;2.33;2.13;;;22.50;80.40;;;;;;5072654;28;20191;-61
2021/06/01 16:31:11;;;;;;;4.32;2.70;;;21.70;80.30;;;;;;5076724;28;20190;-61
2021/06/01 16:33:42;;;;;;;3.65;2.40;;;21.60;80.20;;;;;;5077033;28;20197;-57
2021/06/01 16:42:01;;;;;;;2.67;2.47;;;21.60;80.80;;;;;;5077068;28;20249;-57
2021/06/01 17:06:07;;;;;;;5.30;2.70;;;21.40;82.60;;;;;;5076848;28;20192;-54
2021/06/01 17:11:17;;;;;;;2.60;2.40;;;21.30;83.30;;;;;;5076860;28;20175;-61
2021/06/01 17:13:50;;;;;;;5.30;2.58;;;21.30;83.10;;;;;;5077185;28;20182;-58
2021/06/01 17:16:40;;;;;;;3.83;2.53;;;21.20;83.20;;;;;;5076819;28;20218;-52
2021/06/01 17:21:56;;;;;;;2.83;2.40;;;21.10;81.10;;;;;;5076425;28;20205;-60
2021/06/01 17:34:35;;;;;;;3.20;2.28;;;21.20;82.30;;;;;;5076367;28;20206;-56
2021/06/01 17:35:09;;;;;;;3.53;2.50;;;21.30;83.90;;;;;;5075676;28;20257;-56
2021/06/01 17:37:35;;;;;;;3.77;2.10;;;21.40;82.60;;;;;;5076032;28;20203;-53
2021/06/01 17:40:01;;;;;;;2.28;2.13;;;21.40;83.50;;;;;;5075993;28;20178;-53
2021/06/01 17:42:32;;;;;;;2.13;2.03;;;21.40;80.80;;;;;;5081372;28;20204;-59
2021/06/01 17:45:03;;;;;;;2.38;2.13;;;21.50;81.40;;;;;;5096565;28;20166;-61
2021/06/01 17:47:32;;;;;;;3.77;2.30;;;21.50;81.90;;;;;;5096066;28;20193;-61
2021/06/01 17:49:57;;;;;;;2.85;2.13;;;21.50;82.10;;;;;;5096231;28;20173;-58
2021/06/01 17:52:32;;;;;;;3.22;2.20;;;21.50;80.90;;;;;;5096019;28;20174;-50
2021/06/01 17:55:00;;;;;;;4.07;2.30;;;21.40;80.90;;;;;;5096119;28;20694;-56
2021/06/01 17:57:27;;;;;;;3.17;2.37;;;21.30;82.60;;;;;;5095940;28;20236;-60
2021/06/01 17:59:55;;;;;;;2.23;2.00;;;22.10;84.30;;;;;;5096044;28;20578;-56
2021/06/01 18:02:21;;;;;;;3.27;2.30;;;21.40;84.20;;;;;;5095725;28;20178;-55
2021/06/01 18:04:49;;;;;;;3.13;2.40;;;21.40;84.80;;;;;;5095647;28;20181;-51
2021/06/01 18:07:20;;;;;;;2.60;2.00;;;21.40;84.90;;;;;;5095864;28;20198;-60
2021/06/01 18:13:12;;;;;;;2.93;2.30;;;21.30;84.70;;;;;;5084102;28;20638;-53
2021/06/01 18:35:53;;;;;;;3.47;2.33;;;20.50;87.10;;;;;;5072650;28;20836;-60
2021/06/01 19:24:45;;;;;;;2.07;1.97;;;19.20;83.80;;;;;;5091023;28;20197;-55
2021/06/01 19:52:07;;;;;;;3.33;2.57;;;19.10;86.60;;;;;;5073983;28;20181;-57
2021/06/01 19:54:34;;;;;;;3.53;2.40;;;19.10;86.30;;;;;;5081546;28;20194;-52
2021/06/01 19:57:00;;;;;;;1.97;1.87;;;19.00;86.00;;;;;;5092751;28;20208;-60